sensor_id;sensor_type;location;lat;lon;timestamp;pressure;altitude;pressure_sealevel;temperature;humidity
74790;BME280;63318;52.406;13.416;2023-05-29T00:00:16;101625.57;;;13.89;55.66
74790;BME280;63318;52.406;13.416;2023-05-29T00:02:44;101622.88;;;13.85;55.67
74790;BME280;63318;52.406;13.416;2023-05-29T00:05:13;101620.45;;;13.81;55.51
74790;BME280;63318;52.406;13.416;2023-05-29T00:07:42;101617.21;;;13.77;55.73
74790;BME280;63318;52.406;13.416;2023-05-29T00:10:11;101618.38;;;13.74;55.82
74790;BME280;63318;52.406;13.416;2023-05-29T00:12:40;101612.77;;;13.69;55.82
74790;BME280;63318;52.406;13.416;2023-05-29T00:15:10;101611.19;;;13.64;55.78
74790;BME280;63318;52.406;13.416;2023-05-29T00:17:39;101608.67;;;13.60;55.97
74790;BME280;63318;52.406;13.416;2023-05-29T00:20:09;101607.52;;;13.56;56.01
74790;BME280;63318;52.406;13.416;2023-05-29T00:22:37;101606.79;;;13.51;56.07
74790;BME280;63318;52.406;13.416;2023-05-29T00:25:08;101605.48;;;13.47;56.06
74790;BME280;63318;52.406;13.416;2023-05-29T00:27:36;101608.52;;;13.43;56.42
74790;BME280;63318;52.406;13.416;2023-05-29T00:30:07;101611.35;;;13.38;56.52
74790;BME280;63318;52.406;13.416;2023-05-29T00:32:35;101614.11;;;13.32;56.77
74790;BME280;63318;52.406;13.416;2023-05-29T00:35:03;101615.91;;;13.26;56.90
74790;BME280;63318;52.406;13.416;2023-05-29T00:37:32;101620.45;;;13.19;57.27
74790;BME280;63318;52.406;13.416;2023-05-29T00:40:00;101620.75;;;13.12;57.59
74790;BME280;63318;52.406;13.416;2023-05-29T00:42:28;101621.25;;;13.05;57.77
74790;BME280;63318;52.406;13.416;2023-05-29T00:44:56;101615.71;;;12.98;58.03
74790;BME280;63318;52.406;13.416;2023-05-29T00:47:24;101616.07;;;12.92;58.07
74790;BME280;63318;52.406;13.416;2023-05-29T00:49:54;101615.86;;;12.87;58.10
74790;BME280;63318;52.406;13.416;2023-05-29T00:52:24;101611.48;;;12.82;58.16
74790;BME280;63318;52.406;13.416;2023-05-29T00:54:54;101617.57;;;12.78;58.28
74790;BME280;63318;52.406;13.416;2023-05-29T00:57:23;101613.31;;;12.73;58.02
74790;BME280;63318;52.406;13.416;2023-05-29T00:59:51;101610.81;;;12.68;58.41
74790;BME280;63318;52.406;13.416;2023-05-29T01:02:21;101614.48;;;12.64;58.51
74790;BME280;63318;52.406;13.416;2023-05-29T01:04:50;101617.71;;;12.59;58.76
74790;BME280;63318;52.406;13.416;2023-05-29T01:07:18;101617.60;;;12.54;58.90
74790;BME280;63318;52.406;13.416;2023-05-29T01:09:46;101618.97;;;12.49;58.99
74790;BME280;63318;52.406;13.416;2023-05-29T01:12:24;101615.92;;;12.44;59.03
74790;BME280;63318;52.406;13.416;2023-05-29T01:15:04;101615.36;;;12.39;59.39
74790;BME280;63318;52.406;13.416;2023-05-29T01:17:42;101612.25;;;12.34;59.66
74790;BME280;63318;52.406;13.416;2023-05-29T01:20:17;101610.97;;;12.28;59.73
74790;BME280;63318;52.406;13.416;2023-05-29T01:23:04;101617.42;;;12.21;60.01
74790;BME280;63318;52.406;13.416;2023-05-29T01:25:53;101620.16;;;12.16;59.79
74790;BME280;63318;52.406;13.416;2023-05-29T01:28:29;101622.05;;;12.11;59.73
74790;BME280;63318;52.406;13.416;2023-05-29T01:31:01;101622.67;;;12.07;59.85
74790;BME280;63318;52.406;13.416;2023-05-29T01:33:32;101623.09;;;12.04;60.05
74790;BME280;63318;52.406;13.416;2023-05-29T01:36:00;101623.88;;;12.00;60.17
74790;BME280;63318;52.406;13.416;2023-05-29T01:38:28;101626.06;;;11.96;60.18
74790;BME280;63318;52.406;13.416;2023-05-29T01:40:56;101626.52;;;11.93;60.05
74790;BME280;63318;52.406;13.416;2023-05-29T01:43:25;101635.95;;;11.90;60.22
74790;BME280;63318;52.406;13.416;2023-05-29T01:45:54;101636.71;;;11.86;60.14
74790;BME280;63318;52.406;13.416;2023-05-29T01:48:24;101638.67;;;11.83;60.39
74790;BME280;63318;52.406;13.416;2023-05-29T01:50:53;101645.03;;;11.80;60.37
74790;BME280;63318;52.406;13.416;2023-05-29T01:53:22;101643.05;;;11.76;60.52
74790;BME280;63318;52.406;13.416;2023-05-29T01:55:50;101637.70;;;11.72;60.70
74790;BME280;63318;52.406;13.416;2023-05-29T01:58:20;101638.70;;;11.68;60.74
74790;BME280;63318;52.406;13.416;2023-05-29T02:00:49;101640.69;;;11.64;61.18
74790;BME280;63318;52.406;13.416;2023-05-29T02:03:17;101642.42;;;11.60;61.16
74790;BME280;63318;52.406;13.416;2023-05-29T02:05:46;101640.70;;;11.56;61.18
74790;BME280;63318;52.406;13.416;2023-05-29T02:08:15;101640.48;;;11.52;61.41
74790;BME280;63318;52.406;13.416;2023-05-29T02:10:43;101643.34;;;11.48;61.74
74790;BME280;63318;52.406;13.416;2023-05-29T02:13:11;101644.23;;;11.44;61.57
74790;BME280;63318;52.406;13.416;2023-05-29T02:15:39;101643.70;;;11.39;61.55
74790;BME280;63318;52.406;13.416;2023-05-29T02:18:09;101641.56;;;11.34;61.85
74790;BME280;63318;52.406;13.416;2023-05-29T02:20:38;101643.06;;;11.29;61.98
74790;BME280;63318;52.406;13.416;2023-05-29T02:23:07;101640.98;;;11.24;62.19
74790;BME280;63318;52.406;13.416;2023-05-29T02:25:36;101646.91;;;11.19;62.62
74790;BME280;63318;52.406;13.416;2023-05-29T02:28:05;101646.41;;;11.14;62.41
74790;BME280;63318;52.406;13.416;2023-05-29T02:30:34;101647.95;;;11.09;62.44
74790;BME280;63318;52.406;13.416;2023-05-29T02:33:03;101640.48;;;11.04;62.74
74790;BME280;63318;52.406;13.416;2023-05-29T02:35:31;101642.42;;;11.00;62.84
74790;BME280;63318;52.406;13.416;2023-05-29T02:37:59;101638.13;;;10.96;62.98
74790;BME280;63318;52.406;13.416;2023-05-29T02:40:28;101635.96;;;10.92;63.14
74790;BME280;63318;52.406;13.416;2023-05-29T02:42:56;101634.68;;;10.89;63.21
74790;BME280;63318;52.406;13.416;2023-05-29T02:45:24;101638.95;;;10.85;63.64
74790;BME280;63318;52.406;13.416;2023-05-29T02:47:52;101639.12;;;10.81;63.74
74790;BME280;63318;52.406;13.416;2023-05-29T02:50:21;101645.67;;;10.78;64.12
74790;BME280;63318;52.406;13.416;2023-05-29T02:52:49;101642.02;;;10.74;64.00
74790;BME280;63318;52.406;13.416;2023-05-29T02:55:17;101641.23;;;10.71;64.01
74790;BME280;63318;52.406;13.416;2023-05-29T02:57:46;101643.37;;;10.68;64.07
74790;BME280;63318;52.406;13.416;2023-05-29T03:00:15;101644.59;;;10.65;64.38
74790;BME280;63318;52.406;13.416;2023-05-29T03:02:43;101650.48;;;10.62;64.36
74790;BME280;63318;52.406;13.416;2023-05-29T03:05:11;101653.61;;;10.60;64.54
74790;BME280;63318;52.406;13.416;2023-05-29T03:07:39;101651.12;;;10.58;64.51
74790;BME280;63318;52.406;13.416;2023-05-29T03:10:09;101654.30;;;10.55;64.31
74790;BME280;63318;52.406;13.416;2023-05-29T03:12:37;101654.20;;;10.52;64.57
74790;BME280;63318;52.406;13.416;2023-05-29T03:15:07;101653.87;;;10.50;64.48
74790;BME280;63318;52.406;13.416;2023-05-29T03:17:36;101654.95;;;10.48;64.75
74790;BME280;63318;52.406;13.416;2023-05-29T03:20:05;101656.23;;;10.45;65.04
74790;BME280;63318;52.406;13.416;2023-05-29T03:22:33;101655.89;;;10.44;64.92
74790;BME280;63318;52.406;13.416;2023-05-29T03:25:03;101656.64;;;10.43;65.10
74790;BME280;63318;52.406;13.416;2023-05-29T03:27:31;101656.13;;;10.42;65.24
74790;BME280;63318;52.406;13.416;2023-05-29T03:30:00;101658.59;;;10.40;65.21
74790;BME280;63318;52.406;13.416;2023-05-29T03:32:28;101659.93;;;10.40;65.62
74790;BME280;63318;52.406;13.416;2023-05-29T03:34:57;101662.20;;;10.39;65.60
74790;BME280;63318;52.406;13.416;2023-05-29T03:37:25;101668.40;;;10.39;65.78
74790;BME280;63318;52.406;13.416;2023-05-29T03:39:53;101665.96;;;10.39;65.94
74790;BME280;63318;52.406;13.416;2023-05-29T03:42:21;101666.81;;;10.40;66.05
74790;BME280;63318;52.406;13.416;2023-05-29T03:44:50;101666.04;;;10.40;66.21
74790;BME280;63318;52.406;13.416;2023-05-29T03:47:18;101665.83;;;10.41;66.30
74790;BME280;63318;52.406;13.416;2023-05-29T03:49:46;101670.81;;;10.42;66.41
74790;BME280;63318;52.406;13.416;2023-05-29T03:52:14;101666.83;;;10.44;66.61
74790;BME280;63318;52.406;13.416;2023-05-29T03:54:43;101670.18;;;10.45;66.62
74790;BME280;63318;52.406;13.416;2023-05-29T03:57:11;101675.25;;;10.46;66.55
74790;BME280;63318;52.406;13.416;2023-05-29T03:59:39;101672.01;;;10.48;66.72
74790;BME280;63318;52.406;13.416;2023-05-29T04:02:08;101674.60;;;10.50;66.96
74790;BME280;63318;52.406;13.416;2023-05-29T04:04:36;101679.24;;;10.52;66.94
74790;BME280;63318;52.406;13.416;2023-05-29T04:07:04;101683.96;;;10.55;67.08
74790;BME280;63318;52.406;13.416;2023-05-29T04:09:33;101682.74;;;10.58;67.11
74790;BME280;63318;52.406;13.416;2023-05-29T04:12:02;101686.63;;;10.61;67.02
74790;BME280;63318;52.406;13.416;2023-05-29T04:14:30;101685.86;;;10.65;67.03
74790;BME280;63318;52.406;13.416;2023-05-29T04:16:59;101684.92;;;10.68;66.97
74790;BME280;63318;52.406;13.416;2023-05-29T04:19:27;101688.21;;;10.71;66.97
74790;BME280;63318;52.406;13.416;2023-05-29T04:21:55;101686.89;;;10.76;67.02
74790;BME280;63318;52.406;13.416;2023-05-29T04:24:24;101688.63;;;10.80;66.76
74790;BME280;63318;52.406;13.416;2023-05-29T04:26:52;101689.83;;;10.85;66.80
74790;BME280;63318;52.406;13.416;2023-05-29T04:29:20;101689.20;;;10.91;66.66
74790;BME280;63318;52.406;13.416;2023-05-29T04:31:49;101687.02;;;10.97;66.89
74790;BME280;63318;52.406;13.416;2023-05-29T04:34:17;101686.73;;;11.03;66.59
74790;BME280;63318;52.406;13.416;2023-05-29T04:36:46;101689.89;;;11.10;66.70
74790;BME280;63318;52.406;13.416;2023-05-29T04:39:14;101689.11;;;11.17;66.65
74790;BME280;63318;52.406;13.416;2023-05-29T04:41:43;101689.99;;;11.24;66.19
74790;BME280;63318;52.406;13.416;2023-05-29T04:44:11;101687.60;;;11.31;66.23
74790;BME280;63318;52.406;13.416;2023-05-29T04:46:39;101687.55;;;11.39;66.33
74790;BME280;63318;52.406;13.416;2023-05-29T04:49:08;101691.64;;;11.48;65.75
74790;BME280;63318;52.406;13.416;2023-05-29T04:51:36;101696.00;;;11.58;65.77
74790;BME280;63318;52.406;13.416;2023-05-29T04:54:04;101696.62;;;11.69;65.80
74790;BME280;63318;52.406;13.416;2023-05-29T04:56:33;101695.52;;;11.78;65.89
74790;BME280;63318;52.406;13.416;2023-05-29T04:59:01;101694.98;;;11.90;65.37
74790;BME280;63318;52.406;13.416;2023-05-29T05:01:29;101691.83;;;11.99;65.16
74790;BME280;63318;52.406;13.416;2023-05-29T05:03:58;101693.17;;;12.10;64.84
74790;BME280;63318;52.406;13.416;2023-05-29T05:06:26;101693.11;;;12.20;64.63
74790;BME280;63318;52.406;13.416;2023-05-29T05:08:54;101692.95;;;12.30;64.22
74790;BME280;63318;52.406;13.416;2023-05-29T05:11:23;101694.54;;;12.42;64.10
74790;BME280;63318;52.406;13.416;2023-05-29T05:13:51;101693.31;;;12.54;63.83
74790;BME280;63318;52.406;13.416;2023-05-29T05:16:20;101694.49;;;12.66;63.57
74790;BME280;63318;52.406;13.416;2023-05-29T05:18:48;101696.29;;;12.79;63.08
74790;BME280;63318;52.406;13.416;2023-05-29T05:21:18;101699.84;;;12.92;62.84
74790;BME280;63318;52.406;13.416;2023-05-29T05:23:47;101700.64;;;13.05;62.61
74790;BME280;63318;52.406;13.416;2023-05-29T05:26:15;101700.74;;;13.18;62.23
74790;BME280;63318;52.406;13.416;2023-05-29T05:28:44;101705.14;;;13.31;61.80
74790;BME280;63318;52.406;13.416;2023-05-29T05:31:13;101705.64;;;13.46;61.90
74790;BME280;63318;52.406;13.416;2023-05-29T05:33:42;101706.55;;;13.60;61.49
74790;BME280;63318;52.406;13.416;2023-05-29T05:36:11;101701.09;;;13.74;60.98
74790;BME280;63318;52.406;13.416;2023-05-29T05:38:39;101702.49;;;13.87;60.81
74790;BME280;63318;52.406;13.416;2023-05-29T05:41:08;101698.00;;;14.05;60.44
74790;BME280;63318;52.406;13.416;2023-05-29T05:43:37;101700.85;;;14.24;59.79
74790;BME280;63318;52.406;13.416;2023-05-29T05:46:06;101704.23;;;14.45;59.53
74790;BME280;63318;52.406;13.416;2023-05-29T05:48:35;101706.27;;;14.64;59.02
74790;BME280;63318;52.406;13.416;2023-05-29T05:51:03;101706.45;;;14.85;58.62
74790;BME280;63318;52.406;13.416;2023-05-29T05:53:31;101707.30;;;15.05;58.38
74790;BME280;63318;52.406;13.416;2023-05-29T05:56:01;101709.35;;;15.27;57.84
74790;BME280;63318;52.406;13.416;2023-05-29T05:58:29;101712.36;;;15.50;57.49
74790;BME280;63318;52.406;13.416;2023-05-29T06:00:57;101713.88;;;15.74;57.34
74790;BME280;63318;52.406;13.416;2023-05-29T06:03:26;101715.80;;;15.98;56.50
74790;BME280;63318;52.406;13.416;2023-05-29T06:05:55;101709.41;;;16.23;56.02
74790;BME280;63318;52.406;13.416;2023-05-29T06:08:23;101712.88;;;16.47;55.43
74790;BME280;63318;52.406;13.416;2023-05-29T06:10:51;101717.27;;;16.71;55.78
74790;BME280;63318;52.406;13.416;2023-05-29T06:13:21;101716.91;;;16.97;54.87
74790;BME280;63318;52.406;13.416;2023-05-29T06:15:49;101712.61;;;17.21;54.98
74790;BME280;63318;52.406;13.416;2023-05-29T06:18:17;101712.27;;;17.44;54.17
74790;BME280;63318;52.406;13.416;2023-05-29T06:20:47;101713.48;;;17.65;52.92
74790;BME280;63318;52.406;13.416;2023-05-29T06:23:15;101719.90;;;17.90;52.08
74790;BME280;63318;52.406;13.416;2023-05-29T06:25:43;101724.94;;;18.10;51.66
74790;BME280;63318;52.406;13.416;2023-05-29T06:28:12;101727.99;;;18.30;51.13
74790;BME280;63318;52.406;13.416;2023-05-29T06:30:41;101731.84;;;18.51;50.19
74790;BME280;63318;52.406;13.416;2023-05-29T06:33:10;101730.39;;;18.77;49.61
74790;BME280;63318;52.406;13.416;2023-05-29T06:35:38;101728.55;;;19.03;49.04
74790;BME280;63318;52.406;13.416;2023-05-29T06:38:06;101728.80;;;19.29;48.96
74790;BME280;63318;52.406;13.416;2023-05-29T06:40:36;101732.89;;;19.50;48.04
74790;BME280;63318;52.406;13.416;2023-05-29T06:43:04;101732.53;;;19.69;47.23
74790;BME280;63318;52.406;13.416;2023-05-29T06:45:32;101727.73;;;19.93;47.09
74790;BME280;63318;52.406;13.416;2023-05-29T06:48:01;101729.98;;;20.18;47.02
74790;BME280;63318;52.406;13.416;2023-05-29T06:50:29;101732.51;;;20.33;45.97
74790;BME280;63318;52.406;13.416;2023-05-29T06:52:59;101729.20;;;20.51;45.21
74790;BME280;63318;52.406;13.416;2023-05-29T06:55:28;101734.64;;;20.75;44.70
74790;BME280;63318;52.406;13.416;2023-05-29T06:57:56;101736.19;;;20.98;44.50
74790;BME280;63318;52.406;13.416;2023-05-29T07:00:25;101738.07;;;21.10;43.44
74790;BME280;63318;52.406;13.416;2023-05-29T07:02:55;101744.35;;;21.20;43.55
74790;BME280;63318;52.406;13.416;2023-05-29T07:05:23;101742.30;;;21.40;43.70
74790;BME280;63318;52.406;13.416;2023-05-29T07:07:52;101742.14;;;21.57;42.90
74790;BME280;63318;52.406;13.416;2023-05-29T07:10:21;101742.20;;;21.73;42.07
74790;BME280;63318;52.406;13.416;2023-05-29T07:12:50;101743.65;;;21.87;42.65
74790;BME280;63318;52.406;13.416;2023-05-29T07:15:20;101744.94;;;21.96;42.68
74790;BME280;63318;52.406;13.416;2023-05-29T07:17:48;101743.30;;;22.00;42.37
74790;BME280;63318;52.406;13.416;2023-05-29T07:20:17;101748.35;;;22.15;42.37
74790;BME280;63318;52.406;13.416;2023-05-29T07:22:45;101749.48;;;22.25;41.21
74790;BME280;63318;52.406;13.416;2023-05-29T07:25:14;101750.08;;;22.32;40.74
74790;BME280;63318;52.406;13.416;2023-05-29T07:27:42;101750.65;;;22.49;40.67
74790;BME280;63318;52.406;13.416;2023-05-29T07:30:12;101751.27;;;22.63;40.17
74790;BME280;63318;52.406;13.416;2023-05-29T07:32:41;101755.30;;;22.74;39.44
74790;BME280;63318;52.406;13.416;2023-05-29T07:35:09;101751.70;;;22.85;39.20
74790;BME280;63318;52.406;13.416;2023-05-29T07:37:37;101748.35;;;22.98;39.32
74790;BME280;63318;52.406;13.416;2023-05-29T07:40:08;101752.23;;;23.09;39.10
74790;BME280;63318;52.406;13.416;2023-05-29T07:42:37;101751.34;;;23.22;38.81
74790;BME280;63318;52.406;13.416;2023-05-29T07:45:07;101753.64;;;23.18;38.04
74790;BME280;63318;52.406;13.416;2023-05-29T07:47:35;101757.65;;;23.08;37.43
74790;BME280;63318;52.406;13.416;2023-05-29T07:50:04;101755.34;;;23.16;37.81
74790;BME280;63318;52.406;13.416;2023-05-29T07:52:32;101758.02;;;23.36;38.60
74790;BME280;63318;52.406;13.416;2023-05-29T07:55:01;101759.70;;;23.59;38.14
74790;BME280;63318;52.406;13.416;2023-05-29T07:57:30;101761.77;;;23.66;37.18
74790;BME280;63318;52.406;13.416;2023-05-29T07:59:58;101763.64;;;23.66;37.02
74790;BME280;63318;52.406;13.416;2023-05-29T08:02:27;101762.99;;;23.71;37.12
74790;BME280;63318;52.406;13.416;2023-05-29T08:04:55;101766.92;;;23.79;36.42
74790;BME280;63318;52.406;13.416;2023-05-29T08:07:23;101764.48;;;23.88;35.74
74790;BME280;63318;52.406;13.416;2023-05-29T08:09:52;101764.17;;;24.06;36.28
74790;BME280;63318;52.406;13.416;2023-05-29T08:12:21;101766.38;;;24.25;35.95
74790;BME280;63318;52.406;13.416;2023-05-29T08:14:49;101763.33;;;24.19;36.05
74790;BME280;63318;52.406;13.416;2023-05-29T08:17:17;101764.73;;;23.97;35.91
74790;BME280;63318;52.406;13.416;2023-05-29T08:19:45;101768.91;;;23.80;36.01
74790;BME280;63318;52.406;13.416;2023-05-29T08:22:15;101767.61;;;23.94;37.05
74790;BME280;63318;52.406;13.416;2023-05-29T08:24:44;101769.41;;;24.19;36.75
74790;BME280;63318;52.406;13.416;2023-05-29T08:27:14;101766.25;;;24.36;35.86
74790;BME280;63318;52.406;13.416;2023-05-29T08:29:43;101763.13;;;24.62;35.97
74790;BME280;63318;52.406;13.416;2023-05-29T08:32:11;101765.83;;;24.82;35.45
74790;BME280;63318;52.406;13.416;2023-05-29T08:34:40;101761.09;;;24.81;34.28
74790;BME280;63318;52.406;13.416;2023-05-29T08:37:09;101764.81;;;24.93;35.04
74790;BME280;63318;52.406;13.416;2023-05-29T08:39:37;101755.73;;;25.15;35.22
74790;BME280;63318;52.406;13.416;2023-05-29T08:42:10;101757.52;;;25.35;35.54
74790;BME280;63318;52.406;13.416;2023-05-29T08:44:41;101757.52;;;25.59;34.78
74790;BME280;63318;52.406;13.416;2023-05-29T08:47:13;101755.77;;;25.77;34.68
74790;BME280;63318;52.406;13.416;2023-05-29T08:49:43;101758.71;;;25.98;34.57
74790;BME280;63318;52.406;13.416;2023-05-29T08:52:19;101758.69;;;26.11;34.68
74790;BME280;63318;52.406;13.416;2023-05-29T08:54:48;101758.39;;;26.12;35.01
74790;BME280;63318;52.406;13.416;2023-05-29T08:57:17;101759.82;;;26.02;34.24
74790;BME280;63318;52.406;13.416;2023-05-29T08:59:45;101760.20;;;25.88;34.08
74790;BME280;63318;52.406;13.416;2023-05-29T09:02:15;101762.88;;;25.83;33.56
74790;BME280;63318;52.406;13.416;2023-05-29T09:04:45;101760.95;;;25.81;33.86
74790;BME280;63318;52.406;13.416;2023-05-29T09:07:14;101764.65;;;25.76;33.61
74790;BME280;63318;52.406;13.416;2023-05-29T09:09:43;101768.39;;;25.71;33.64
74790;BME280;63318;52.406;13.416;2023-05-29T09:12:12;101764.67;;;25.68;33.72
74790;BME280;63318;52.406;13.416;2023-05-29T09:14:42;101761.42;;;25.74;32.85
74790;BME280;63318;52.406;13.416;2023-05-29T09:17:12;101756.77;;;25.78;32.49
74790;BME280;63318;52.406;13.416;2023-05-29T09:19:42;101758.34;;;25.93;32.88
74790;BME280;63318;52.406;13.416;2023-05-29T09:22:12;101758.21;;;26.09;34.32
74790;BME280;63318;52.406;13.416;2023-05-29T09:24:43;101755.45;;;26.24;34.17
74790;BME280;63318;52.406;13.416;2023-05-29T09:27:14;101758.77;;;26.30;33.56
74790;BME280;63318;52.406;13.416;2023-05-29T09:29:43;101758.10;;;26.44;34.38
74790;BME280;63318;52.406;13.416;2023-05-29T09:32:12;101749.52;;;26.55;32.73
74790;BME280;63318;52.406;13.416;2023-05-29T09:34:41;101760.40;;;26.72;33.62
74790;BME280;63318;52.406;13.416;2023-05-29T09:37:10;101765.64;;;26.84;33.86
74790;BME280;63318;52.406;13.416;2023-05-29T09:39:48;101767.23;;;26.96;33.26
74790;BME280;63318;52.406;13.416;2023-05-29T09:42:17;101774.77;;;26.84;33.17
74790;BME280;63318;52.406;13.416;2023-05-29T09:44:48;101774.39;;;26.78;33.33
74790;BME280;63318;52.406;13.416;2023-05-29T09:47:18;101763.78;;;26.65;32.92
74790;BME280;63318;52.406;13.416;2023-05-29T09:49:47;101766.63;;;26.68;33.44
74790;BME280;63318;52.406;13.416;2023-05-29T09:52:20;101769.36;;;26.55;32.30
74790;BME280;63318;52.406;13.416;2023-05-29T09:54:49;101776.92;;;26.25;33.06
74790;BME280;63318;52.406;13.416;2023-05-29T09:57:18;101769.95;;;26.04;33.20
74790;BME280;63318;52.406;13.416;2023-05-29T09:59:47;101764.31;;;25.91;33.36
74790;BME280;63318;52.406;13.416;2023-05-29T10:02:15;101761.05;;;25.96;33.74
74790;BME280;63318;52.406;13.416;2023-05-29T10:04:44;101750.34;;;26.12;33.87
74790;BME280;63318;52.406;13.416;2023-05-29T10:07:24;101750.16;;;26.36;33.56
74790;BME280;63318;52.406;13.416;2023-05-29T10:09:58;101746.77;;;26.41;33.75
74790;BME280;63318;52.406;13.416;2023-05-29T10:12:28;101745.67;;;26.28;33.17
74790;BME280;63318;52.406;13.416;2023-05-29T10:14:59;101747.65;;;26.16;32.95
74790;BME280;63318;52.406;13.416;2023-05-29T10:17:33;101744.25;;;26.15;33.47
74790;BME280;63318;52.406;13.416;2023-05-29T10:20:04;101745.50;;;26.26;33.79
74790;BME280;63318;52.406;13.416;2023-05-29T10:22:34;101748.93;;;26.43;34.10
74790;BME280;63318;52.406;13.416;2023-05-29T10:25:05;101749.67;;;26.55;33.79
74790;BME280;63318;52.406;13.416;2023-05-29T10:27:34;101751.27;;;26.47;33.22
74790;BME280;63318;52.406;13.416;2023-05-29T10:30:12;101756.17;;;26.35;32.95
74790;BME280;63318;52.406;13.416;2023-05-29T10:32:52;101755.14;;;26.24;33.04
74790;BME280;63318;52.406;13.416;2023-05-29T10:35:31;101751.34;;;26.27;33.21
74790;BME280;63318;52.406;13.416;2023-05-29T10:38:12;101751.66;;;26.10;32.55
74790;BME280;63318;52.406;13.416;2023-05-29T10:40:40;101752.81;;;25.97;32.76
74790;BME280;63318;52.406;13.416;2023-05-29T10:43:09;101751.00;;;25.97;33.34
74790;BME280;63318;52.406;13.416;2023-05-29T10:45:59;101751.95;;;26.13;33.10
74790;BME280;63318;52.406;13.416;2023-05-29T10:48:42;101751.23;;;26.31;32.65
74790;BME280;63318;52.406;13.416;2023-05-29T10:51:25;101743.41;;;26.41;32.90
74790;BME280;63318;52.406;13.416;2023-05-29T10:53:54;101735.02;;;26.53;32.66
74790;BME280;63318;52.406;13.416;2023-05-29T10:56:30;101733.67;;;26.59;32.87
74790;BME280;63318;52.406;13.416;2023-05-29T10:58:59;101742.89;;;26.72;32.92
74790;BME280;63318;52.406;13.416;2023-05-29T11:01:29;101746.98;;;26.87;33.32
74790;BME280;63318;52.406;13.416;2023-05-29T11:06:56;101736.46;;;27.05;32.17
74790;BME280;63318;52.406;13.416;2023-05-29T11:09:31;101738.08;;;27.15;32.57
74790;BME280;63318;52.406;13.416;2023-05-29T11:12:22;101736.45;;;27.27;32.37
74790;BME280;63318;52.406;13.416;2023-05-29T11:14:56;101728.86;;;27.39;31.80
74790;BME280;63318;52.406;13.416;2023-05-29T11:17:44;101722.44;;;27.43;31.54
74790;BME280;63318;52.406;13.416;2023-05-29T11:20:24;101733.04;;;27.60;32.23
74790;BME280;63318;52.406;13.416;2023-05-29T11:23:06;101732.43;;;27.71;30.75
74790;BME280;63318;52.406;13.416;2023-05-29T11:25:36;101732.23;;;27.82;31.04
74790;BME280;63318;52.406;13.416;2023-05-29T11:28:08;101727.55;;;27.92;30.55
74790;BME280;63318;52.406;13.416;2023-05-29T11:30:47;101726.14;;;27.94;30.09
74790;BME280;63318;52.406;13.416;2023-05-29T11:33:22;101723.36;;;27.91;30.19
74790;BME280;63318;52.406;13.416;2023-05-29T11:35:53;101716.64;;;28.02;30.74
74790;BME280;63318;52.406;13.416;2023-05-29T11:38:23;101715.34;;;28.17;30.18
74790;BME280;63318;52.406;13.416;2023-05-29T11:40:51;101713.19;;;28.29;30.40
74790;BME280;63318;52.406;13.416;2023-05-29T11:43:20;101702.31;;;28.39;30.01
74790;BME280;63318;52.406;13.416;2023-05-29T11:45:49;101707.36;;;28.41;29.55
74790;BME280;63318;52.406;13.416;2023-05-29T11:48:17;101709.41;;;28.38;29.21
74790;BME280;63318;52.406;13.416;2023-05-29T11:50:46;101704.36;;;28.29;28.62
74790;BME280;63318;52.406;13.416;2023-05-29T11:53:14;101712.17;;;28.11;28.42
74790;BME280;63318;52.406;13.416;2023-05-29T11:55:43;101707.88;;;28.00;28.92
74790;BME280;63318;52.406;13.416;2023-05-29T11:58:11;101708.96;;;27.93;28.48
74790;BME280;63318;52.406;13.416;2023-05-29T12:00:40;101710.91;;;27.75;28.08
74790;BME280;63318;52.406;13.416;2023-05-29T12:03:08;101711.60;;;27.55;28.51
74790;BME280;63318;52.406;13.416;2023-05-29T12:05:48;101709.64;;;27.38;28.68
74790;BME280;63318;52.406;13.416;2023-05-29T12:08:17;101706.75;;;27.34;28.36
74790;BME280;63318;52.406;13.416;2023-05-29T12:10:52;101705.71;;;27.35;29.07
74790;BME280;63318;52.406;13.416;2023-05-29T12:13:21;101701.69;;;27.45;28.42
74790;BME280;63318;52.406;13.416;2023-05-29T12:15:51;101699.64;;;27.59;28.90
74790;BME280;63318;52.406;13.416;2023-05-29T12:18:20;101700.66;;;27.70;29.31
74790;BME280;63318;52.406;13.416;2023-05-29T12:20:49;101702.14;;;27.67;29.34
74790;BME280;63318;52.406;13.416;2023-05-29T12:23:19;101701.89;;;27.55;28.77
74790;BME280;63318;52.406;13.416;2023-05-29T12:25:47;101699.84;;;27.48;28.51
74790;BME280;63318;52.406;13.416;2023-05-29T12:28:18;101700.41;;;27.37;29.26
74790;BME280;63318;52.406;13.416;2023-05-29T12:30:48;101700.80;;;27.23;28.81
74790;BME280;63318;52.406;13.416;2023-05-29T12:33:29;101702.83;;;27.09;29.46
74790;BME280;63318;52.406;13.416;2023-05-29T12:36:03;101697.52;;;27.08;29.38
74790;BME280;63318;52.406;13.416;2023-05-29T12:38:31;101695.50;;;27.10;28.87
74790;BME280;63318;52.406;13.416;2023-05-29T12:41:00;101698.88;;;26.97;28.45
74790;BME280;63318;52.406;13.416;2023-05-29T12:43:28;101704.11;;;26.81;29.30
74790;BME280;63318;52.406;13.416;2023-05-29T12:45:57;101700.93;;;26.69;29.71
74790;BME280;63318;52.406;13.416;2023-05-29T12:48:29;101701.89;;;26.56;29.92
74790;BME280;63318;52.406;13.416;2023-05-29T12:50:58;101694.45;;;26.48;29.18
74790;BME280;63318;52.406;13.416;2023-05-29T12:53:32;101694.70;;;26.38;29.98
74790;BME280;63318;52.406;13.416;2023-05-29T12:56:00;101693.41;;;26.26;30.34